sensor_id;sensor_type;location;lat;lon;timestamp;P1;durP1;ratioP1;P2;durP2;ratioP2
71176;SDS011;58877;51.992;4.504;2022-11-20T00:01:15;13.36;;;13.00;;
71176;SDS011;58877;51.992;4.504;2022-11-20T00:03:44;12.96;;;12.77;;
71176;SDS011;58877;51.992;4.504;2022-11-20T00:06:11;13.67;;;13.51;;
71176;SDS011;58877;51.992;4.504;2022-11-20T00:08:39;13.89;;;13.66;;
71176;SDS011;58877;51.992;4.504;2022-11-20T00:11:08;13.81;;;13.46;;
71176;SDS011;58877;51.992;4.504;2022-11-20T00:13:36;13.33;;;13.21;;
71176;SDS011;58877;51.992;4.504;2022-11-20T00:16:02;13.23;;;13.06;;
71176;SDS011;58877;51.992;4.504;2022-11-20T00:18:30;13.77;;;13.54;;
71176;SDS011;58877;51.992;4.504;2022-11-20T00:21:05;14.04;;;13.71;;
71176;SDS011;58877;51.992;4.504;2022-11-20T00:23:38;13.89;;;13.71;;
71176;SDS011;58877;51.992;4.504;2022-11-20T00:26:08;13.22;;;13.16;;
71176;SDS011;58877;51.992;4.504;2022-11-20T00:28:35;13.39;;;13.27;;
71176;SDS011;58877;51.992;4.504;2022-11-20T00:31:09;14.16;;;13.97;;
71176;SDS011;58877;51.992;4.504;2022-11-20T00:33:37;13.74;;;13.57;;
71176;SDS011;58877;51.992;4.504;2022-11-20T00:36:04;13.81;;;13.68;;
71176;SDS011;58877;51.992;4.504;2022-11-20T00:38:32;14.36;;;14.13;;
71176;SDS011;58877;51.992;4.504;2022-11-20T00:40:59;13.40;;;13.07;;
71176;SDS011;58877;51.992;4.504;2022-11-20T00:43:27;13.43;;;13.12;;
71176;SDS011;58877;51.992;4.504;2022-11-20T00:46:01;13.30;;;13.07;;
71176;SDS011;58877;51.992;4.504;2022-11-20T00:48:31;13.19;;;12.98;;
71176;SDS011;58877;51.992;4.504;2022-11-20T00:50:57;14.19;;;13.88;;
71176;SDS011;58877;51.992;4.504;2022-11-20T00:53:23;13.54;;;13.29;;
71176;SDS011;58877;51.992;4.504;2022-11-20T00:55:54;13.23;;;12.97;;
71176;SDS011;58877;51.992;4.504;2022-11-20T00:58:25;13.49;;;13.25;;
71176;SDS011;58877;51.992;4.504;2022-11-20T01:00:59;13.18;;;13.10;;
71176;SDS011;58877;51.992;4.504;2022-11-20T01:03:26;13.42;;;13.31;;
71176;SDS011;58877;51.992;4.504;2022-11-20T01:05:52;13.12;;;12.96;;
71176;SDS011;58877;51.992;4.504;2022-11-20T01:08:23;12.93;;;12.75;;
71176;SDS011;58877;51.992;4.504;2022-11-20T01:10:48;13.70;;;13.54;;
71176;SDS011;58877;51.992;4.504;2022-11-20T01:13:14;13.67;;;13.39;;
71176;SDS011;58877;51.992;4.504;2022-11-20T01:16:06;13.70;;;13.40;;
71176;SDS011;58877;51.992;4.504;2022-11-20T01:18:41;13.40;;;13.30;;
71176;SDS011;58877;51.992;4.504;2022-11-20T01:21:10;13.13;;;12.98;;
71176;SDS011;58877;51.992;4.504;2022-11-20T01:23:39;13.37;;;13.15;;
71176;SDS011;58877;51.992;4.504;2022-11-20T01:26:07;13.65;;;13.46;;
71176;SDS011;58877;51.992;4.504;2022-11-20T01:28:35;13.35;;;13.16;;
71176;SDS011;58877;51.992;4.504;2022-11-20T01:31:01;12.89;;;12.73;;
71176;SDS011;58877;51.992;4.504;2022-11-20T01:33:35;13.31;;;13.09;;
71176;SDS011;58877;51.992;4.504;2022-11-20T01:36:05;13.83;;;13.58;;
71176;SDS011;58877;51.992;4.504;2022-11-20T01:38:32;14.16;;;13.87;;
71176;SDS011;58877;51.992;4.504;2022-11-20T01:41:01;13.68;;;13.53;;
71176;SDS011;58877;51.992;4.504;2022-11-20T01:43:27;13.50;;;13.40;;
71176;SDS011;58877;51.992;4.504;2022-11-20T01:48:26;13.64;;;13.41;;
71176;SDS011;58877;51.992;4.504;2022-11-20T01:51:13;13.23;;;13.06;;
71176;SDS011;58877;51.992;4.504;2022-11-20T01:53:48;14.10;;;13.93;;
71176;SDS011;58877;51.992;4.504;2022-11-20T01:56:17;13.78;;;13.59;;
71176;SDS011;58877;51.992;4.504;2022-11-20T01:58:46;13.31;;;13.19;;
71176;SDS011;58877;51.992;4.504;2022-11-20T02:01:18;13.79;;;13.61;;
71176;SDS011;58877;51.992;4.504;2022-11-20T02:03:44;14.33;;;14.13;;
71176;SDS011;58877;51.992;4.504;2022-11-20T02:06:11;13.19;;;13.09;;
71176;SDS011;58877;51.992;4.504;2022-11-20T02:08:44;13.51;;;13.28;;
71176;SDS011;58877;51.992;4.504;2022-11-20T02:11:10;14.19;;;13.93;;
71176;SDS011;58877;51.992;4.504;2022-11-20T02:13:38;14.50;;;14.28;;
71176;SDS011;58877;51.992;4.504;2022-11-20T02:16:11;14.68;;;14.26;;
71176;SDS011;58877;51.992;4.504;2022-11-20T02:18:42;13.21;;;12.90;;
71176;SDS011;58877;51.992;4.504;2022-11-20T02:21:21;12.99;;;12.79;;
71176;SDS011;58877;51.992;4.504;2022-11-20T02:26:30;13.36;;;13.26;;
71176;SDS011;58877;51.992;4.504;2022-11-20T02:29:00;13.51;;;13.29;;
71176;SDS011;58877;51.992;4.504;2022-11-20T02:31:28;13.09;;;12.83;;
71176;SDS011;58877;51.992;4.504;2022-11-20T02:33:57;14.07;;;13.82;;
71176;SDS011;58877;51.992;4.504;2022-11-20T02:36:23;13.96;;;13.85;;
71176;SDS011;58877;51.992;4.504;2022-11-20T02:38:53;13.96;;;13.85;;
71176;SDS011;58877;51.992;4.504;2022-11-20T02:41:19;13.56;;;13.41;;
71176;SDS011;58877;51.992;4.504;2022-11-20T02:43:45;14.50;;;14.25;;
71176;SDS011;58877;51.992;4.504;2022-11-20T02:46:11;13.52;;;13.31;;
71176;SDS011;58877;51.992;4.504;2022-11-20T02:48:36;13.72;;;13.61;;
71176;SDS011;58877;51.992;4.504;2022-11-20T02:51:02;14.45;;;14.28;;
71176;SDS011;58877;51.992;4.504;2022-11-20T02:53:28;14.14;;;13.95;;
71176;SDS011;58877;51.992;4.504;2022-11-20T02:55:53;14.07;;;13.95;;
71176;SDS011;58877;51.992;4.504;2022-11-20T02:58:19;14.36;;;14.17;;
71176;SDS011;58877;51.992;4.504;2022-11-20T03:00:44;14.85;;;14.60;;
71176;SDS011;58877;51.992;4.504;2022-11-20T03:03:10;14.51;;;14.37;;
71176;SDS011;58877;51.992;4.504;2022-11-20T03:05:36;14.39;;;14.25;;
71176;SDS011;58877;51.992;4.504;2022-11-20T03:08:01;14.35;;;14.12;;
71176;SDS011;58877;51.992;4.504;2022-11-20T03:10:27;14.30;;;14.07;;
71176;SDS011;58877;51.992;4.504;2022-11-20T03:12:53;15.02;;;14.74;;
71176;SDS011;58877;51.992;4.504;2022-11-20T03:15:20;15.38;;;15.06;;
71176;SDS011;58877;51.992;4.504;2022-11-20T03:17:47;15.25;;;14.96;;
71176;SDS011;58877;51.992;4.504;2022-11-20T03:20:13;14.73;;;14.56;;
71176;SDS011;58877;51.992;4.504;2022-11-20T03:22:39;15.01;;;14.77;;
71176;SDS011;58877;51.992;4.504;2022-11-20T03:25:04;14.32;;;14.12;;
71176;SDS011;58877;51.992;4.504;2022-11-20T03:27:34;14.67;;;14.37;;
71176;SDS011;58877;51.992;4.504;2022-11-20T03:30:03;14.50;;;14.22;;
71176;SDS011;58877;51.992;4.504;2022-11-20T03:32:29;14.73;;;14.56;;
71176;SDS011;58877;51.992;4.504;2022-11-20T03:34:54;14.37;;;14.21;;
71176;SDS011;58877;51.992;4.504;2022-11-20T03:37:20;14.33;;;14.16;;
71176;SDS011;58877;51.992;4.504;2022-11-20T03:39:45;14.37;;;14.23;;
71176;SDS011;58877;51.992;4.504;2022-11-20T03:42:11;14.33;;;14.11;;
71176;SDS011;58877;51.992;4.504;2022-11-20T03:44:55;14.60;;;14.35;;
71176;SDS011;58877;51.992;4.504;2022-11-20T03:47:21;14.67;;;14.52;;
71176;SDS011;58877;51.992;4.504;2022-11-20T03:49:47;14.68;;;14.48;;
71176;SDS011;58877;51.992;4.504;2022-11-20T03:52:12;14.64;;;14.46;;
71176;SDS011;58877;51.992;4.504;2022-11-20T03:54:38;14.95;;;14.72;;
71176;SDS011;58877;51.992;4.504;2022-11-20T03:57:03;14.86;;;14.74;;
71176;SDS011;58877;51.992;4.504;2022-11-20T03:59:28;14.52;;;14.38;;
71176;SDS011;58877;51.992;4.504;2022-11-20T04:01:54;15.20;;;14.95;;
71176;SDS011;58877;51.992;4.504;2022-11-20T04:04:20;14.09;;;13.87;;
71176;SDS011;58877;51.992;4.504;2022-11-20T04:06:45;14.77;;;14.51;;
71176;SDS011;58877;51.992;4.504;2022-11-20T04:09:14;14.99;;;14.85;;
71176;SDS011;58877;51.992;4.504;2022-11-20T04:11:40;14.93;;;14.72;;
71176;SDS011;58877;51.992;4.504;2022-11-20T04:14:11;14.98;;;14.80;;
71176;SDS011;58877;51.992;4.504;2022-11-20T04:16:39;15.24;;;14.96;;
71176;SDS011;58877;51.992;4.504;2022-11-20T04:19:06;15.32;;;15.10;;
71176;SDS011;58877;51.992;4.504;2022-11-20T04:21:36;15.93;;;15.72;;
71176;SDS011;58877;51.992;4.504;2022-11-20T04:24:06;16.23;;;16.07;;
71176;SDS011;58877;51.992;4.504;2022-11-20T04:26:32;16.14;;;15.86;;
71176;SDS011;58877;51.992;4.504;2022-11-20T04:28:58;15.50;;;15.33;;
71176;SDS011;58877;51.992;4.504;2022-11-20T04:31:25;15.94;;;15.59;;
71176;SDS011;58877;51.992;4.504;2022-11-20T04:33:53;15.18;;;14.93;;
71176;SDS011;58877;51.992;4.504;2022-11-20T04:36:22;15.23;;;15.05;;
71176;SDS011;58877;51.992;4.504;2022-11-20T04:38:50;15.56;;;15.28;;
71176;SDS011;58877;51.992;4.504;2022-11-20T04:41:27;15.23;;;14.95;;
71176;SDS011;58877;51.992;4.504;2022-11-20T04:43:55;15.56;;;15.25;;
71176;SDS011;58877;51.992;4.504;2022-11-20T04:46:28;15.47;;;15.25;;
71176;SDS011;58877;51.992;4.504;2022-11-20T04:48:58;15.17;;;14.93;;
71176;SDS011;58877;51.992;4.504;2022-11-20T04:51:24;15.48;;;15.20;;
71176;SDS011;58877;51.992;4.504;2022-11-20T04:53:49;15.38;;;15.02;;
71176;SDS011;58877;51.992;4.504;2022-11-20T04:56:15;15.06;;;14.69;;
71176;SDS011;58877;51.992;4.504;2022-11-20T04:58:41;15.02;;;14.73;;
71176;SDS011;58877;51.992;4.504;2022-11-20T05:01:10;14.81;;;14.67;;
71176;SDS011;58877;51.992;4.504;2022-11-20T05:03:39;14.55;;;14.33;;
71176;SDS011;58877;51.992;4.504;2022-11-20T05:06:06;14.16;;;13.99;;
71176;SDS011;58877;51.992;4.504;2022-11-20T05:08:33;14.86;;;14.59;;
71176;SDS011;58877;51.992;4.504;2022-11-20T05:11:00;15.11;;;14.79;;
71176;SDS011;58877;51.992;4.504;2022-11-20T05:13:27;14.98;;;14.74;;
71176;SDS011;58877;51.992;4.504;2022-11-20T05:15:53;14.67;;;14.47;;
71176;SDS011;58877;51.992;4.504;2022-11-20T05:18:18;14.85;;;14.61;;
71176;SDS011;58877;51.992;4.504;2022-11-20T05:20:47;15.15;;;14.93;;
71176;SDS011;58877;51.992;4.504;2022-11-20T05:23:20;13.72;;;13.66;;
71176;SDS011;58877;51.992;4.504;2022-11-20T05:25:45;14.09;;;13.96;;
71176;SDS011;58877;51.992;4.504;2022-11-20T05:28:11;15.23;;;14.96;;
71176;SDS011;58877;51.992;4.504;2022-11-20T05:30:37;14.71;;;14.50;;
71176;SDS011;58877;51.992;4.504;2022-11-20T05:33:02;14.85;;;14.63;;
71176;SDS011;58877;51.992;4.504;2022-11-20T05:35:28;14.73;;;14.47;;
71176;SDS011;58877;51.992;4.504;2022-11-20T05:37:54;14.64;;;14.45;;
71176;SDS011;58877;51.992;4.504;2022-11-20T05:40:20;15.00;;;14.78;;
71176;SDS011;58877;51.992;4.504;2022-11-20T05:42:46;14.62;;;14.39;;
71176;SDS011;58877;51.992;4.504;2022-11-20T05:45:11;15.09;;;14.84;;
71176;SDS011;58877;51.992;4.504;2022-11-20T05:47:37;15.16;;;14.90;;
71176;SDS011;58877;51.992;4.504;2022-11-20T05:50:02;14.73;;;14.56;;
71176;SDS011;58877;51.992;4.504;2022-11-20T05:52:29;14.65;;;14.43;;
71176;SDS011;58877;51.992;4.504;2022-11-20T05:54:55;14.96;;;14.72;;
71176;SDS011;58877;51.992;4.504;2022-11-20T05:57:21;14.98;;;14.82;;
71176;SDS011;58877;51.992;4.504;2022-11-20T05:59:47;15.57;;;15.22;;
71176;SDS011;58877;51.992;4.504;2022-11-20T06:02:12;15.15;;;14.92;;
71176;SDS011;58877;51.992;4.504;2022-11-20T06:04:38;14.58;;;14.44;;
71176;SDS011;58877;51.992;4.504;2022-11-20T06:07:07;15.94;;;15.55;;
71176;SDS011;58877;51.992;4.504;2022-11-20T06:09:33;15.48;;;15.25;;
71176;SDS011;58877;51.992;4.504;2022-11-20T06:11:59;15.29;;;14.98;;
71176;SDS011;58877;51.992;4.504;2022-11-20T06:14:25;15.55;;;15.36;;
71176;SDS011;58877;51.992;4.504;2022-11-20T06:16:50;15.62;;;15.42;;
71176;SDS011;58877;51.992;4.504;2022-11-20T06:19:16;15.11;;;14.96;;
71176;SDS011;58877;51.992;4.504;2022-11-20T06:21:41;15.73;;;15.47;;
71176;SDS011;58877;51.992;4.504;2022-11-20T06:24:09;15.68;;;15.52;;
71176;SDS011;58877;51.992;4.504;2022-11-20T06:26:35;16.01;;;15.62;;
71176;SDS011;58877;51.992;4.504;2022-11-20T06:29:01;16.10;;;15.74;;
71176;SDS011;58877;51.992;4.504;2022-11-20T06:31:27;15.89;;;15.71;;
71176;SDS011;58877;51.992;4.504;2022-11-20T06:33:53;15.70;;;15.46;;
71176;SDS011;58877;51.992;4.504;2022-11-20T06:36:20;15.45;;;15.17;;
71176;SDS011;58877;51.992;4.504;2022-11-20T06:38:48;15.32;;;15.15;;
71176;SDS011;58877;51.992;4.504;2022-11-20T06:41:16;15.55;;;15.41;;
71176;SDS011;58877;51.992;4.504;2022-11-20T06:43:43;15.87;;;15.57;;
71176;SDS011;58877;51.992;4.504;2022-11-20T06:46:10;16.07;;;15.92;;
71176;SDS011;58877;51.992;4.504;2022-11-20T06:48:42;16.16;;;15.99;;
71176;SDS011;58877;51.992;4.504;2022-11-20T06:51:08;16.78;;;16.49;;
71176;SDS011;58877;51.992;4.504;2022-11-20T06:53:35;15.91;;;15.66;;
71176;SDS011;58877;51.992;4.504;2022-11-20T06:56:02;16.26;;;16.00;;
71176;SDS011;58877;51.992;4.504;2022-11-20T06:58:29;15.91;;;15.70;;
71176;SDS011;58877;51.992;4.504;2022-11-20T07:01:00;16.18;;;15.96;;
71176;SDS011;58877;51.992;4.504;2022-11-20T07:03:33;16.86;;;16.56;;
71176;SDS011;58877;51.992;4.504;2022-11-20T07:06:00;16.55;;;16.26;;
71176;SDS011;58877;51.992;4.504;2022-11-20T07:08:27;16.38;;;16.11;;
71176;SDS011;58877;51.992;4.504;2022-11-20T07:11:03;16.07;;;15.82;;
71176;SDS011;58877;51.992;4.504;2022-11-20T07:13:30;16.76;;;16.49;;
71176;SDS011;58877;51.992;4.504;2022-11-20T07:16:00;16.08;;;15.85;;
71176;SDS011;58877;51.992;4.504;2022-11-20T07:18:29;16.31;;;16.09;;
71176;SDS011;58877;51.992;4.504;2022-11-20T07:21:04;16.43;;;16.13;;
71176;SDS011;58877;51.992;4.504;2022-11-20T07:23:33;16.58;;;16.35;;
71176;SDS011;58877;51.992;4.504;2022-11-20T07:26:03;16.60;;;16.36;;
71176;SDS011;58877;51.992;4.504;2022-11-20T07:28:32;16.07;;;15.88;;
71176;SDS011;58877;51.992;4.504;2022-11-20T07:30:59;16.12;;;15.92;;
71176;SDS011;58877;51.992;4.504;2022-11-20T07:33:25;15.80;;;15.61;;
71176;SDS011;58877;51.992;4.504;2022-11-20T07:35:50;15.55;;;15.18;;
71176;SDS011;58877;51.992;4.504;2022-11-20T07:38:16;15.84;;;15.65;;
71176;SDS011;58877;51.992;4.504;2022-11-20T07:40:41;15.33;;;15.05;;
71176;SDS011;58877;51.992;4.504;2022-11-20T07:43:07;16.43;;;16.17;;
71176;SDS011;58877;51.992;4.504;2022-11-20T07:45:32;16.55;;;16.13;;
71176;SDS011;58877;51.992;4.504;2022-11-20T07:48:00;16.32;;;16.05;;
71176;SDS011;58877;51.992;4.504;2022-11-20T07:50:32;17.35;;;16.93;;
71176;SDS011;58877;51.992;4.504;2022-11-20T07:53:09;16.36;;;16.05;;
71176;SDS011;58877;51.992;4.504;2022-11-20T07:55:35;17.17;;;16.99;;
71176;SDS011;58877;51.992;4.504;2022-11-20T07:58:10;16.81;;;16.76;;
71176;SDS011;58877;51.992;4.504;2022-11-20T08:00:36;17.78;;;17.57;;
71176;SDS011;58877;51.992;4.504;2022-11-20T08:03:04;16.73;;;16.56;;
71176;SDS011;58877;51.992;4.504;2022-11-20T08:05:33;17.65;;;17.39;;
71176;SDS011;58877;51.992;4.504;2022-11-20T08:08:02;17.89;;;17.59;;
71176;SDS011;58877;51.992;4.504;2022-11-20T08:10:28;17.13;;;16.93;;
71176;SDS011;58877;51.992;4.504;2022-11-20T08:12:54;16.72;;;16.50;;
71176;SDS011;58877;51.992;4.504;2022-11-20T08:15:38;17.44;;;17.14;;
71176;SDS011;58877;51.992;4.504;2022-11-20T08:18:06;18.09;;;17.76;;
71176;SDS011;58877;51.992;4.504;2022-11-20T08:20:35;17.25;;;16.93;;
71176;SDS011;58877;51.992;4.504;2022-11-20T08:23:05;17.41;;;17.18;;
71176;SDS011;58877;51.992;4.504;2022-11-20T08:25:32;17.67;;;17.45;;
71176;SDS011;58877;51.992;4.504;2022-11-20T08:28:09;17.24;;;17.04;;
71176;SDS011;58877;51.992;4.504;2022-11-20T08:30:40;17.38;;;17.10;;
71176;SDS011;58877;51.992;4.504;2022-11-20T08:33:07;17.73;;;17.46;;
71176;SDS011;58877;51.992;4.504;2022-11-20T08:35:35;17.31;;;17.05;;
71176;SDS011;58877;51.992;4.504;2022-11-20T08:38:03;17.84;;;17.52;;
71176;SDS011;58877;51.992;4.504;2022-11-20T08:40:32;18.14;;;17.77;;
71176;SDS011;58877;51.992;4.504;2022-11-20T08:42:58;17.88;;;17.71;;
71176;SDS011;58877;51.992;4.504;2022-11-20T08:45:27;16.78;;;16.57;;
71176;SDS011;58877;51.992;4.504;2022-11-20T08:47:53;17.68;;;17.44;;
71176;SDS011;58877;51.992;4.504;2022-11-20T08:50:22;17.67;;;17.43;;
71176;SDS011;58877;51.992;4.504;2022-11-20T08:52:47;18.38;;;18.11;;
71176;SDS011;58877;51.992;4.504;2022-11-20T08:55:18;17.84;;;17.44;;
71176;SDS011;58877;51.992;4.504;2022-11-20T08:57:44;18.37;;;17.97;;
71176;SDS011;58877;51.992;4.504;2022-11-20T09:00:10;17.45;;;17.22;;
71176;SDS011;58877;51.992;4.504;2022-11-20T09:02:39;18.30;;;18.05;;
71176;SDS011;58877;51.992;4.504;2022-11-20T09:05:04;18.32;;;18.07;;
71176;SDS011;58877;51.992;4.504;2022-11-20T09:07:31;17.92;;;17.74;;
71176;SDS011;58877;51.992;4.504;2022-11-20T09:09:56;17.52;;;17.38;;
71176;SDS011;58877;51.992;4.504;2022-11-20T09:12:22;19.16;;;18.79;;
71176;SDS011;58877;51.992;4.504;2022-11-20T09:14:48;17.72;;;17.38;;
71176;SDS011;58877;51.992;4.504;2022-11-20T09:17:16;18.10;;;17.92;;
71176;SDS011;58877;51.992;4.504;2022-11-20T09:19:44;18.31;;;18.17;;
71176;SDS011;58877;51.992;4.504;2022-11-20T09:22:10;18.20;;;18.07;;
71176;SDS011;58877;51.992;4.504;2022-11-20T09:24:36;18.75;;;18.57;;
71176;SDS011;58877;51.992;4.504;2022-11-20T09:27:04;18.49;;;18.32;;
71176;SDS011;58877;51.992;4.504;2022-11-20T09:29:37;18.57;;;18.20;;
71176;SDS011;58877;51.992;4.504;2022-11-20T09:32:02;18.73;;;18.56;;
71176;SDS011;58877;51.992;4.504;2022-11-20T09:34:28;18.79;;;18.68;;
71176;SDS011;58877;51.992;4.504;2022-11-20T09:36:53;18.19;;;18.00;;
71176;SDS011;58877;51.992;4.504;2022-11-20T09:39:19;19.06;;;18.95;;
71176;SDS011;58877;51.992;4.504;2022-11-20T09:41:55;19.57;;;19.37;;
71176;SDS011;58877;51.992;4.504;2022-11-20T09:55:40;19.23;;;19.00;;
71176;SDS011;58877;51.992;4.504;2022-11-20T09:58:06;19.94;;;19.68;;
71176;SDS011;58877;51.992;4.504;2022-11-20T10:00:37;19.86;;;19.65;;
71176;SDS011;58877;51.992;4.504;2022-11-20T10:03:26;20.15;;;20.03;;
71176;SDS011;58877;51.992;4.504;2022-11-20T10:06:04;20.75;;;20.46;;
71176;SDS011;58877;51.992;4.504;2022-11-20T10:11:39;20.21;;;19.79;;
71176;SDS011;58877;51.992;4.504;2022-11-20T10:25:14;19.98;;;19.68;;
71176;SDS011;58877;51.992;4.504;2022-11-20T10:30:16;19.92;;;19.60;;
71176;SDS011;58877;51.992;4.504;2022-11-20T10:32:54;19.78;;;19.36;;
71176;SDS011;58877;51.992;4.504;2022-11-20T10:35:39;19.91;;;19.68;;
71176;SDS011;58877;51.992;4.504;2022-11-20T10:38:35;20.83;;;20.54;;
71176;SDS011;58877;51.992;4.504;2022-11-20T10:41:23;19.89;;;19.79;;
71176;SDS011;58877;51.992;4.504;2022-11-20T10:47:01;19.58;;;19.29;;
71176;SDS011;58877;51.992;4.504;2022-11-20T10:49:28;20.38;;;20.17;;
71176;SDS011;58877;51.992;4.504;2022-11-20T10:52:00;20.81;;;20.54;;
71176;SDS011;58877;51.992;4.504;2022-11-20T10:57:14;21.64;;;21.24;;
71176;SDS011;58877;51.992;4.504;2022-11-20T10:59:54;21.90;;;21.15;;
71176;SDS011;58877;51.992;4.504;2022-11-20T11:02:33;20.89;;;20.57;;
71176;SDS011;58877;51.992;4.504;2022-11-20T11:07:45;20.97;;;20.77;;
71176;SDS011;58877;51.992;4.504;2022-11-20T11:10:18;20.42;;;20.22;;
71176;SDS011;58877;51.992;4.504;2022-11-20T11:12:48;20.98;;;20.86;;
71176;SDS011;58877;51.992;4.504;2022-11-20T11:15:59;21.17;;;20.91;;
71176;SDS011;58877;51.992;4.504;2022-11-20T11:18:04;21.49;;;21.32;;
71176;SDS011;58877;51.992;4.504;2022-11-20T11:20:29;22.32;;;21.95;;
71176;SDS011;58877;51.992;4.504;2022-11-20T11:22:57;21.70;;;21.23;;
71176;SDS011;58877;51.992;4.504;2022-11-20T11:25:34;22.17;;;21.87;;
71176;SDS011;58877;51.992;4.504;2022-11-20T11:28:19;22.27;;;21.93;;
71176;SDS011;58877;51.992;4.504;2022-11-20T11:30:51;22.18;;;21.87;;
71176;SDS011;58877;51.992;4.504;2022-11-20T11:33:21;23.03;;;22.58;;
71176;SDS011;58877;51.992;4.504;2022-11-20T11:35:52;23.67;;;23.17;;
71176;SDS011;58877;51.992;4.504;2022-11-20T11:41:07;23.10;;;22.52;;
71176;SDS011;58877;51.992;4.504;2022-11-20T11:43:40;23.51;;;22.99;;
71176;SDS011;58877;51.992;4.504;2022-11-20T11:46:39;23.34;;;23.00;;
71176;SDS011;58877;51.992;4.504;2022-11-20T11:49:17;23.69;;;23.50;;
71176;SDS011;58877;51.992;4.504;2022-11-20T11:54:47;24.17;;;23.65;;
71176;SDS011;58877;51.992;4.504;2022-11-20T11:57:49;23.44;;;23.13;;
71176;SDS011;58877;51.992;4.504;2022-11-20T12:00:37;24.24;;;23.87;;
71176;SDS011;58877;51.992;4.504;2022-11-20T12:06:05;25.63;;;24.98;;
71176;SDS011;58877;51.992;4.504;2022-11-20T12:14:00;25.78;;;25.01;;
71176;SDS011;58877;51.992;4.504;2022-11-20T12:16:37;26.04;;;25.43;;
71176;SDS011;58877;51.992;4.504;2022-11-20T12:19:07;25.09;;;24.56;;
71176;SDS011;58877;51.992;4.504;2022-11-20T12:40:43;25.52;;;25.15;;
71176;SDS011;58877;51.992;4.504;2022-11-20T12:43:28;25.87;;;25.43;;
71176;SDS011;58877;51.992;4.504;2022-11-20T12:52:03;26.30;;;25.72;;
71176;SDS011;58877;51.992;4.504;2022-11-20T12:57:18;26.48;;;26.02;;
71176;SDS011;58877;51.992;4.504;2022-11-20T13:00:09;30.85;;;30.60;;
71176;SDS011;58877;51.992;4.504;2022-11-20T13:08:24;31.69;;;30.90;;
71176;SDS011;58877;51.992;4.504;2022-11-20T13:13:54;25.22;;;24.72;;
71176;SDS011;58877;51.992;4.504;2022-11-20T13:17:09;25.21;;;24.71;;
71176;SDS011;58877;51.992;4.504;2022-11-20T13:19:52;25.68;;;25.10;;
71176;SDS011;58877;51.992;4.504;2022-11-20T13:25:09;25.72;;;25.02;;
71176;SDS011;58877;51.992;4.504;2022-11-20T13:27:35;26.04;;;25.61;;
71176;SDS011;58877;51.992;4.504;2022-11-20T13:30:14;26.26;;;25.71;;
71176;SDS011;58877;51.992;4.504;2022-11-20T13:32:50;26.57;;;25.68;;
71176;SDS011;58877;51.992;4.504;2022-11-20T13:38:08;26.48;;;25.83;;
71176;SDS011;58877;51.992;4.504;2022-11-20T13:40:51;27.46;;;26.74;;
71176;SDS011;58877;51.992;4.504;2022-11-20T13:45:58;28.00;;;27.21;;
71176;SDS011;58877;51.992;4.504;2022-11-20T13:48:29;27.71;;;27.05;;
71176;SDS011;58877;51.992;4.504;2022-11-20T13:56:54;28.15;;;27.45;;
71176;SDS011;58877;51.992;4.504;2022-11-20T14:02:27;29.33;;;28.35;;
71176;SDS011;58877;51.992;4.504;2022-11-20T14:04:59;28.18;;;27.30;;
71176;SDS011;58877;51.992;4.504;2022-11-20T14:07:35;27.75;;;26.86;;
71176;SDS011;58877;51.992;4.504;2022-11-20T14:10:05;27.98;;;27.15;;
71176;SDS011;58877;51.992;4.504;2022-11-20T14:12:44;27.09;;;26.52;;
71176;SDS011;58877;51.992;4.504;2022-11-20T14:15:23;28.89;;;27.86;;
71176;SDS011;58877;51.992;4.504;2022-11-20T14:17:52;27.31;;;26.56;;
71176;SDS011;58877;51.992;4.504;2022-11-20T14:20:20;28.01;;;27.07;;
71176;SDS011;58877;51.992;4.504;2022-11-20T14:22:51;27.78;;;27.12;;
71176;SDS011;58877;51.992;4.504;2022-11-20T14:27:52;27.57;;;27.01;;
71176;SDS011;58877;51.992;4.504;2022-11-20T14:30:25;28.03;;;27.33;;
71176;SDS011;58877;51.992;4.504;2022-11-20T14:32:54;28.43;;;27.58;;
71176;SDS011;58877;51.992;4.504;2022-11-20T14:35:24;28.74;;;27.92;;
71176;SDS011;58877;51.992;4.504;2022-11-20T14:37:52;28.49;;;27.37;;
71176;SDS011;58877;51.992;4.504;2022-11-20T14:42:56;27.68;;;27.11;;
71176;SDS011;58877;51.992;4.504;2022-11-20T14:45:23;27.27;;;26.68;;
71176;SDS011;58877;51.992;4.504;2022-11-20T14:47:51;27.32;;;26.60;;
71176;SDS011;58877;51.992;4.504;2022-11-20T14:50:21;28.12;;;27.52;;
71176;SDS011;58877;51.992;4.504;2022-11-20T14:58:01;29.16;;;28.03;;
71176;SDS011;58877;51.992;4.504;2022-11-20T15:00:44;28.82;;;27.85;;
71176;SDS011;58877;51.992;4.504;2022-11-20T15:03:22;31.32;;;30.36;;
71176;SDS011;58877;51.992;4.504;2022-11-20T15:05:49;28.84;;;27.68;;
71176;SDS011;58877;51.992;4.504;2022-11-20T15:08:16;26.95;;;26.26;;
71176;SDS011;58877;51.992;4.504;2022-11-20T15:10:46;28.11;;;27.11;;
71176;SDS011;58877;51.992;4.504;2022-11-20T15:13:24;27.84;;;27.01;;
71176;SDS011;58877;51.992;4.504;2022-11-20T15:15:55;28.97;;;27.77;;
71176;SDS011;58877;51.992;4.504;2022-11-20T15:20:58;33.01;;;31.90;;
71176;SDS011;58877;51.992;4.504;2022-11-20T15:23:28;30.11;;;29.18;;
71176;SDS011;58877;51.992;4.504;2022-11-20T15:25:54;29.49;;;28.29;;
71176;SDS011;58877;51.992;4.504;2022-11-20T15:28:23;27.36;;;26.32;;
71176;SDS011;58877;51.992;4.504;2022-11-20T15:30:55;27.79;;;26.71;;
71176;SDS011;58877;51.992;4.504;2022-11-20T15:33:24;25.90;;;25.02;;
71176;SDS011;58877;51.992;4.504;2022-11-20T15:35:50;26.88;;;26.16;;
71176;SDS011;58877;51.992;4.504;2022-11-20T15:38:15;25.53;;;24.75;;
71176;SDS011;58877;51.992;4.504;2022-11-20T15:40:41;25.31;;;24.91;;
71176;SDS011;58877;51.992;4.504;2022-11-20T15:43:06;25.61;;;25.09;;
71176;SDS011;58877;51.992;4.504;2022-11-20T15:45:54;25.64;;;25.05;;
71176;SDS011;58877;51.992;4.504;2022-11-20T15:48:34;24.64;;;24.00;;
71176;SDS011;58877;51.992;4.504;2022-11-20T15:53:51;25.69;;;24.95;;
71176;SDS011;58877;51.992;4.504;2022-11-20T15:56:17;24.66;;;24.21;;
71176;SDS011;58877;51.992;4.504;2022-11-20T15:58:42;25.21;;;24.70;;
71176;SDS011;58877;51.992;4.504;2022-11-20T16:01:11;25.33;;;24.68;;
71176;SDS011;58877;51.992;4.504;2022-11-20T16:03:38;24.28;;;23.80;;
71176;SDS011;58877;51.992;4.504;2022-11-20T16:06:04;25.67;;;24.89;;
71176;SDS011;58877;51.992;4.504;2022-11-20T16:08:30;26.58;;;25.96;;
71176;SDS011;58877;51.992;4.504;2022-11-20T16:10:55;26.38;;;25.69;;
71176;SDS011;58877;51.992;4.504;2022-11-20T16:13:21;26.76;;;25.94;;
71176;SDS011;58877;51.992;4.504;2022-11-20T16:16:06;28.79;;;28.02;;
71176;SDS011;58877;51.992;4.504;2022-11-20T16:18:35;28.76;;;28.15;;
71176;SDS011;58877;51.992;4.504;2022-11-20T16:21:01;27.73;;;27.16;;
71176;SDS011;58877;51.992;4.504;2022-11-20T16:23:27;27.50;;;27.04;;
71176;SDS011;58877;51.992;4.504;2022-11-20T16:25:53;31.00;;;30.49;;
71176;SDS011;58877;51.992;4.504;2022-11-20T16:28:19;30.42;;;29.95;;
71176;SDS011;58877;51.992;4.504;2022-11-20T16:30:45;26.06;;;25.83;;
71176;SDS011;58877;51.992;4.504;2022-11-20T16:33:12;26.40;;;25.78;;
71176;SDS011;58877;51.992;4.504;2022-11-20T16:35:39;25.65;;;25.14;;
71176;SDS011;58877;51.992;4.504;2022-11-20T16:38:05;27.82;;;27.31;;
71176;SDS011;58877;51.992;4.504;2022-11-20T16:40:30;25.76;;;25.21;;